Time,TemperatureF,DewpointF,PressureIn,WindDirection,WindDirectionDegrees,WindSpeedMPH,WindSpeedGustMPH,Humidity,HourlyPrecipIn,Conditions,Clouds,dailyrainin,SoftwareType,DateUTC
2013-01-27 00:00:00,33.8,26.7,28.14,WSW,248,0.0,0.0,75,0.00,,---,0.00,VWS V14.01,2013-01-27 05:00:00,
2013-01-27 00:01:00,33.8,26.7,28.14,SW,225,0.0,0.0,75,0.00,,---,0.00,VWS V14.01,2013-01-27 05:01:00,
2013-01-27 00:02:00,33.8,26.7,28.14,SW,225,0.0,0.0,75,0.00,,---,0.00,VWS V14.01,2013-01-27 05:02:00,
2013-01-27 00:03:00,33.8,26.7,28.14,SW,225,0.0,0.0,75,0.00,,---,0.00,VWS V14.01,2013-01-27 05:03:00,
2013-01-27 00:08:00,33.4,26.4,28.14,WSW,248,0.0,0.9,75,0.00,,---,0.00,VWS V14.01,2013-01-27 05:08:00,
2013-01-27 00:13:00,33.3,26.8,28.14,SSW,202,0.0,0.0,77,0.00,,---,0.00,VWS V14.01,2013-01-27 05:13:00,
2013-01-27 00:18:00,33.1,26.7,28.14,WSW,248,0.0,0.0,77,0.00,,---,0.00,VWS V14.01,2013-01-27 05:18:00,
2013-01-27 00:23:00,33.1,27.3,28.14,SSE,158,0.0,0.0,79,0.00,,---,0.00,VWS V14.01,2013-01-27 05:23:00,
2013-01-27 00:28:00,33.1,27.3,28.14,East,90,0.0,0.0,79,0.00,,---,0.00,VWS V14.01,2013-01-27 05:28:00,
2013-01-27 00:33:00,33.1,27.3,28.17,NNE,22,0.9,0.9,79,0.00,,---,0.00,VWS V14.01,2013-01-27 05:33:00,
2013-01-27 00:38:00,33.1,27.3,28.17,West,270,1.1,1.1,79,0.00,,---,0.00,VWS V14.01,2013-01-27 05:38:00,
2013-01-27 00:43:00,32.4,27.2,28.17,WSW,248,0.0,0.0,81,0.00,,---,0.00,VWS V14.01,2013-01-27 05:43:00,
2013-01-27 00:49:00,32.2,27.6,28.14,SSW,202,0.0,0.0,83,0.00,,---,0.00,VWS V14.01,2013-01-27 05:49:00,
2013-01-27 00:54:00,32.2,28.2,28.14,WSW,248,1.6,1.6,85,0.00,,---,0.00,VWS V14.01,2013-01-27 05:54:00,
2013-01-27 00:59:00,32.0,28.6,28.14,SSW,202,0.0,2.7,87,0.00,,---,0.00,VWS V14.01,2013-01-27 05:59:00,
2013-01-27 01:04:00,31.8,28.4,28.14,ESE,112,0.9,1.1,87,0.00,,---,0.00,VWS V14.01,2013-01-27 06:04:00,
2013-01-27 01:09:00,31.8,28.4,28.14,WSW,248,2.7,2.7,87,0.00,,---,0.00,VWS V14.01,2013-01-27 06:09:00,
2013-01-27 01:14:00,31.6,28.5,28.14,West,270,0.0,0.0,88,0.00,,---,0.00,VWS V14.01,2013-01-27 06:14:00,
2013-01-27 01:19:00,31.5,28.6,28.14,SW,225,0.0,0.0,89,0.00,,---,0.00,VWS V14.01,2013-01-27 06:19:00,
2013-01-27 01:24:00,31.5,28.6,28.17,NW,315,1.3,1.3,89,0.00,,---,0.00,VWS V14.01,2013-01-27 06:24:00,
2013-01-27 01:29:00,31.5,28.6,28.17,SSW,202,0.0,0.0,89,0.00,,---,0.00,VWS V14.01,2013-01-27 06:29:00,
2013-01-27 01:34:00,31.5,28.6,28.14,SW,225,1.1,1.3,89,0.00,,---,0.00,VWS V14.01,2013-01-27 06:34:00,
2013-01-27 01:39:00,31.3,28.4,28.14,SE,135,0.0,0.0,89,0.00,,---,0.00,VWS V14.01,2013-01-27 06:39:00,
2013-01-27 01:44:00,31.1,28.2,28.14,WSW,248,0.9,2.0,89,0.00,,---,0.00,VWS V14.01,2013-01-27 06:44:00,
2013-01-27 01:49:00,31.1,28.2,28.14,SE,135,0.0,0.0,89,0.00,,---,0.00,VWS V14.01,2013-01-27 06:49:00,
2013-01-27 01:54:00,30.9,28.1,28.14,WNW,292,0.0,0.0,89,0.00,,---,0.00,VWS V14.01,2013-01-27 06:54:00,
2013-01-27 02:00:00,31.1,28.5,28.14,WNW,292,1.3,2.2,90,0.00,,---,0.00,VWS V14.01,2013-01-27 07:00:00,
2013-01-27 02:05:00,30.9,28.3,28.14,WNW,292,0.0,0.0,90,0.00,,---,0.00,VWS V14.01,2013-01-27 07:05:00,
2013-01-27 02:13:00,30.9,28.1,28.14,SW,225,1.1,2.5,89,0.00,,---,0.00,VWS V14.01,2013-01-27 07:13:00,
2013-01-27 02:18:00,30.7,27.9,28.17,WSW,248,0.0,0.0,89,0.00,,---,0.00,VWS V14.01,2013-01-27 07:18:00,
2013-01-27 02:23:00,30.6,27.7,28.17,WSW,248,0.0,0.0,89,0.00,,---,0.00,VWS V14.01,2013-01-27 07:23:00,
2013-01-27 02:28:00,30.6,27.7,28.17,NNE,22,0.0,0.0,89,0.00,,---,0.00,VWS V14.01,2013-01-27 07:28:00,
2013-01-27 02:33:00,30.4,27.5,28.17,West,270,0.0,0.9,89,0.00,,---,0.00,VWS V14.01,2013-01-27 07:33:00,
2013-01-27 02:38:00,30.4,27.5,28.17,North,0,0.0,0.0,89,0.00,,---,0.00,VWS V14.01,2013-01-27 07:38:00,
2013-01-27 02:43:00,30.4,27.8,28.17,NNE,22,0.0,0.9,90,0.00,,---,0.00,VWS V14.01,2013-01-27 07:43:00,
2013-01-27 02:48:00,30.4,28.1,28.17,South,180,0.0,0.9,91,0.00,,---,0.00,VWS V14.01,2013-01-27 07:48:00,
2013-01-27 02:54:00,30.4,28.3,28.17,East,90,0.0,1.6,92,0.00,,---,0.00,VWS V14.01,2013-01-27 07:54:00,
2013-01-27 02:59:00,30.2,28.2,28.17,ESE,112,1.3,2.0,92,0.00,,---,0.00,VWS V14.01,2013-01-27 07:59:00,
2013-01-27 03:04:00,30.2,28.2,28.17,South,180,0.0,0.0,92,0.00,,---,0.00,VWS V14.01,2013-01-27 08:04:00,
2013-01-27 03:09:00,30.2,28.2,28.17,SSE,158,0.9,1.1,92,0.00,,---,0.00,VWS V14.01,2013-01-27 08:09:00,
2013-01-27 03:14:00,30.2,28.2,28.17,SW,225,2.5,4.9,92,0.00,,---,0.00,VWS V14.01,2013-01-27 08:14:00,
2013-01-27 03:19:00,30.0,28.0,28.17,WSW,248,0.9,0.9,92,0.00,,---,0.00,VWS V14.01,2013-01-27 08:19:00,
2013-01-27 03:24:00,30.0,28.2,28.17,WNW,292,1.6,1.6,93,0.00,,---,0.00,VWS V14.01,2013-01-27 08:24:00,
2013-01-27 03:29:00,29.8,28.1,28.17,South,180,0.0,0.0,93,0.00,,---,0.00,VWS V14.01,2013-01-27 08:29:00,
2013-01-27 03:34:00,29.7,27.9,28.17,SW,225,0.9,0.9,93,0.00,,---,0.00,VWS V14.01,2013-01-27 08:34:00,
2013-01-27 03:39:00,29.7,27.9,28.17,South,180,0.0,0.9,93,0.00,,---,0.00,VWS V14.01,2013-01-27 08:39:00,
2013-01-27 03:44:00,29.5,27.5,28.17,East,90,0.0,0.9,92,0.00,,---,0.00,VWS V14.01,2013-01-27 08:44:00,
2013-01-27 03:49:00,29.5,27.5,28.17,West,270,0.0,1.6,92,0.00,,---,0.00,VWS V14.01,2013-01-27 08:49:00,
2013-01-27 03:54:00,29.3,27.3,28.17,WSW,248,1.1,2.5,92,0.00,,---,0.00,VWS V14.01,2013-01-27 08:54:00,
2013-01-27 03:59:00,29.3,27.3,28.17,West,270,0.0,2.5,92,0.00,,---,0.00,VWS V14.01,2013-01-27 08:59:00,
2013-01-27 04:04:00,29.3,27.3,28.14,West,270,0.0,1.1,92,0.00,,---,0.00,VWS V14.01,2013-01-27 09:04:00,
2013-01-27 04:10:00,29.3,27.3,28.14,WNW,292,0.0,0.9,92,0.00,,---,0.00,VWS V14.01,2013-01-27 09:10:00,
2013-01-27 04:15:00,29.3,27.3,28.14,SSW,202,0.0,2.9,92,0.00,,---,0.00,VWS V14.01,2013-01-27 09:15:00,
2013-01-27 04:20:00,29.3,27.3,28.14,SE,135,2.9,2.9,92,0.00,,---,0.00,VWS V14.01,2013-01-27 09:20:00,
2013-01-27 04:25:00,29.5,27.5,28.14,SSE,158,0.0,2.0,92,0.00,,---,0.00,VWS V14.01,2013-01-27 09:25:00,
2013-01-27 04:30:00,29.5,27.5,28.14,NNE,22,0.9,1.3,92,0.00,,---,0.00,VWS V14.01,2013-01-27 09:30:00,
2013-01-27 04:35:00,29.7,27.6,28.14,WSW,248,1.1,2.5,92,0.00,,---,0.00,VWS V14.01,2013-01-27 09:35:00,
2013-01-27 04:40:00,29.5,27.5,28.14,SSW,202,0.0,1.6,92,0.00,,---,0.00,VWS V14.01,2013-01-27 09:40:00,
2013-01-27 04:45:00,29.5,27.5,28.14,East,90,0.0,0.0,92,0.00,,---,0.00,VWS V14.01,2013-01-27 09:45:00,
2013-01-27 04:50:00,29.5,27.5,28.14,SSW,202,0.0,1.3,92,0.00,,---,0.00,VWS V14.01,2013-01-27 09:50:00,
2013-01-27 04:55:00,29.5,27.5,28.14,SW,225,0.9,0.9,92,0.00,,---,0.00,VWS V14.01,2013-01-27 09:55:00,
2013-01-27 05:01:00,29.5,27.5,28.14,SSW,202,0.0,1.6,92,0.00,,---,0.00,VWS V14.01,2013-01-27 10:01:00,
2013-01-27 05:06:00,29.5,27.5,28.14,ESE,112,0.0,0.0,92,0.00,,---,0.00,VWS V14.01,2013-01-27 10:06:00,
2013-01-27 05:11:00,29.5,27.5,28.14,WSW,248,0.9,2.5,92,0.00,,---,0.00,VWS V14.01,2013-01-27 10:11:00,
2013-01-27 05:16:00,29.5,27.5,28.14,NW,315,1.3,2.7,92,0.00,,---,0.00,VWS V14.01,2013-01-27 10:16:00,
2013-01-27 05:21:00,29.7,27.6,28.14,WSW,248,0.0,1.6,92,0.00,,---,0.00,VWS V14.01,2013-01-27 10:21:00,
2013-01-27 05:26:00,29.7,27.4,28.14,SE,135,0.0,0.0,91,0.00,,---,0.00,VWS V14.01,2013-01-27 10:26:00,
2013-01-27 05:31:00,29.7,27.4,28.14,ESE,112,0.0,0.0,91,0.00,,---,0.00,VWS V14.01,2013-01-27 10:31:00,
2013-01-27 05:36:00,29.8,27.5,28.17,WSW,248,0.0,0.0,91,0.00,,---,0.00,VWS V14.01,2013-01-27 10:36:00,
2013-01-27 05:41:00,30.0,27.7,28.17,WSW,248,0.0,0.0,91,0.00,,---,0.00,VWS V14.01,2013-01-27 10:41:00,
2013-01-27 05:46:00,30.2,27.9,28.17,WNW,292,0.0,0.0,91,0.00,,---,0.00,VWS V14.01,2013-01-27 10:46:00,
2013-01-27 05:51:00,30.2,27.9,28.17,NW,315,1.3,2.2,91,0.00,,---,0.00,VWS V14.01,2013-01-27 10:51:00,
2013-01-27 05:56:00,30.4,27.8,28.17,WNW,292,0.0,2.5,90,0.00,,---,0.00,VWS V14.01,2013-01-27 10:56:00,
2013-01-27 06:01:00,30.4,27.8,28.17,NE,45,0.0,3.4,90,0.00,,---,0.00,VWS V14.01,2013-01-27 11:01:00,
2013-01-27 06:06:00,30.4,27.8,28.17,NW,315,1.3,2.0,90,0.00,,---,0.00,VWS V14.01,2013-01-27 11:06:00,
2013-01-27 06:11:00,30.4,27.8,28.17,SSW,202,0.0,1.3,90,0.00,,---,0.00,VWS V14.01,2013-01-27 11:11:00,
2013-01-27 06:16:00,30.6,28.0,28.17,East,90,0.0,0.0,90,0.00,,---,0.00,VWS V14.01,2013-01-27 11:16:00,
2013-01-27 06:21:00,30.7,28.2,28.17,WNW,292,0.0,0.0,90,0.00,,---,0.00,VWS V14.01,2013-01-27 11:21:00,
2013-01-27 06:26:00,30.7,27.9,28.17,ESE,112,0.0,0.0,89,0.00,,---,0.00,VWS V14.01,2013-01-27 11:26:00,
2013-01-27 06:31:00,30.7,27.9,28.17,East,90,0.0,0.0,89,0.00,,---,0.00,VWS V14.01,2013-01-27 11:31:00,
2013-01-27 06:36:00,30.7,27.9,28.17,East,90,0.0,0.0,89,0.00,,---,0.00,VWS V14.01,2013-01-27 11:36:00,
2013-01-27 06:41:00,30.7,27.9,28.17,NNW,338,0.0,0.0,89,0.00,,---,0.00,VWS V14.01,2013-01-27 11:41:00,
2013-01-27 06:46:00,30.7,27.9,28.17,WSW,248,0.0,0.0,89,0.00,,---,0.00,VWS V14.01,2013-01-27 11:46:00,
2013-01-27 06:51:00,30.7,27.9,28.17,ENE,68,1.3,2.0,89,0.00,,---,0.00,VWS V14.01,2013-01-27 11:51:00,
2013-01-27 06:56:00,30.9,28.1,28.17,East,90,0.0,0.0,89,0.00,,---,0.00,VWS V14.01,2013-01-27 11:56:00,
2013-01-27 07:01:00,30.9,28.1,28.17,ESE,112,0.0,0.9,89,0.00,,---,0.00,VWS V14.01,2013-01-27 12:01:00,
2013-01-27 07:06:00,30.9,27.8,28.17,East,90,1.1,1.1,88,0.00,,---,0.00,VWS V14.01,2013-01-27 12:06:00,
2013-01-27 07:11:00,30.7,27.6,28.17,South,180,0.0,1.3,88,0.00,,---,0.00,VWS V14.01,2013-01-27 12:11:00,
2013-01-27 07:16:00,30.6,27.4,28.17,East,90,1.1,2.0,88,0.00,,---,0.00,VWS V14.01,2013-01-27 12:16:00,
2013-01-27 07:21:00,30.6,27.4,28.20,East,90,0.9,1.6,88,0.00,,---,0.00,VWS V14.01,2013-01-27 12:21:00,
2013-01-27 07:26:00,30.4,27.3,28.20,NW,315,0.0,0.0,88,0.00,,---,0.00,VWS V14.01,2013-01-27 12:26:00,
2013-01-27 07:31:00,30.4,27.3,28.20,WSW,248,0.0,0.0,88,0.00,,---,0.00,VWS V14.01,2013-01-27 12:31:00,
2013-01-27 07:36:00,30.4,27.3,28.20,NNE,22,0.9,0.9,88,0.00,,---,0.00,VWS V14.01,2013-01-27 12:36:00,
2013-01-27 07:41:00,30.6,27.4,28.20,WNW,292,0.0,0.0,88,0.00,,---,0.00,VWS V14.01,2013-01-27 12:41:00,
2013-01-27 07:46:00,30.7,27.9,28.20,SSW,202,1.3,2.0,89,0.00,,---,0.00,VWS V14.01,2013-01-27 12:46:00,
2013-01-27 07:51:00,30.7,27.6,28.20,SSE,158,0.0,1.1,88,0.00,,---,0.00,VWS V14.01,2013-01-27 12:51:00,
2013-01-27 07:56:00,30.9,27.8,28.20,East,90,0.0,1.1,88,0.00,,---,0.00,VWS V14.01,2013-01-27 12:56:00,
2013-01-27 08:01:00,31.1,28.0,28.20,SE,135,0.0,0.0,88,0.00,,---,0.00,VWS V14.01,2013-01-27 13:01:00,
2013-01-27 08:07:00,31.3,28.1,28.20,ESE,112,0.0,0.0,88,0.00,,---,0.00,VWS V14.01,2013-01-27 13:07:00,
2013-01-27 08:12:00,31.8,28.7,28.20,ESE,112,0.0,0.0,88,0.00,,---,0.00,VWS V14.01,2013-01-27 13:12:00,
2013-01-27 08:17:00,32.2,29.0,28.20,ESE,112,0.0,0.0,88,0.00,,---,0.00,VWS V14.01,2013-01-27 13:17:00,
2013-01-27 08:22:00,32.5,29.4,28.20,NE,45,0.0,0.0,88,0.00,,---,0.00,VWS V14.01,2013-01-27 13:22:00,
2013-01-27 08:27:00,32.9,29.7,28.20,East,90,0.9,0.9,88,0.00,,---,0.00,VWS V14.01,2013-01-27 13:27:00,
2013-01-27 08:32:00,33.4,30.3,28.23,NNE,22,1.1,2.5,88,0.00,,---,0.00,VWS V14.01,2013-01-27 13:32:00,
2013-01-27 08:37:00,34.2,30.4,28.23,SSE,158,0.0,2.5,86,0.00,,---,0.00,VWS V14.01,2013-01-27 13:37:00,
2013-01-27 08:42:00,34.9,30.5,28.23,SSE,158,2.7,2.7,84,0.00,,---,0.00,VWS V14.01,2013-01-27 13:42:00,
2013-01-27 08:47:00,35.1,30.1,28.20,SE,135,0.0,1.6,82,0.00,,---,0.00,VWS V14.01,2013-01-27 13:47:00,
2013-01-27 08:52:00,35.6,30.0,28.20,SW,225,0.0,1.1,80,0.00,,---,0.00,VWS V14.01,2013-01-27 13:52:00,
2013-01-27 08:57:00,35.8,29.6,28.20,ESE,112,2.5,4.3,78,0.00,,---,0.00,VWS V14.01,2013-01-27 13:57:00,
2013-01-27 09:02:00,35.8,29.0,28.20,SSW,202,1.6,3.4,76,0.00,,---,0.00,VWS V14.01,2013-01-27 14:02:00,
2013-01-27 09:07:00,36.1,29.3,28.20,ENE,68,1.3,4.0,76,0.00,,---,0.00,VWS V14.01,2013-01-27 14:07:00,
2013-01-27 09:12:00,37.0,29.9,28.20,SSE,158,1.1,1.6,75,0.00,,---,0.00,VWS V14.01,2013-01-27 14:12:00,
2013-01-27 09:17:00,37.9,30.4,28.23,SSE,158,1.3,3.1,74,0.00,,---,0.00,VWS V14.01,2013-01-27 14:17:00,
2013-01-27 09:22:00,37.4,28.9,28.23,ESE,112,3.4,6.5,71,0.00,,---,0.00,VWS V14.01,2013-01-27 14:22:00,
2013-01-27 09:27:00,37.2,28.7,28.23,WSW,248,0.0,4.3,71,0.00,,---,0.00,VWS V14.01,2013-01-27 14:27:00,
2013-01-27 09:32:00,37.2,28.7,28.23,NE,45,2.5,2.7,71,0.00,,---,0.00,VWS V14.01,2013-01-27 14:32:00,
2013-01-27 09:37:00,37.0,28.5,28.23,ESE,112,0.0,0.0,71,0.00,,---,0.00,VWS V14.01,2013-01-27 14:37:00,
2013-01-27 09:42:00,37.2,28.7,28.23,ESE,112,2.0,2.0,71,0.00,,---,0.00,VWS V14.01,2013-01-27 14:42:00,
2013-01-27 09:47:00,37.4,28.9,28.23,ESE,112,1.6,1.6,71,0.00,,---,0.00,VWS V14.01,2013-01-27 14:47:00,
2013-01-27 09:52:00,37.4,28.9,28.23,SSW,202,0.0,0.9,71,0.00,,---,0.00,VWS V14.01,2013-01-27 14:52:00,
2013-01-27 09:57:00,37.6,29.0,28.23,ESE,112,2.2,3.4,71,0.00,,---,0.00,VWS V14.01,2013-01-27 14:57:00,
2013-01-27 10:02:00,37.6,28.7,28.23,SSE,158,3.1,3.8,70,0.00,,---,0.00,VWS V14.01,2013-01-27 15:02:00,
2013-01-27 10:07:00,37.9,29.0,28.23,ESE,112,0.0,2.9,70,0.00,,---,0.00,VWS V14.01,2013-01-27 15:07:00,
2013-01-27 10:12:00,38.7,29.7,28.23,SE,135,2.5,4.7,70,0.00,,---,0.00,VWS V14.01,2013-01-27 15:12:00,
2013-01-27 10:17:00,38.8,29.2,28.23,ENE,68,2.5,2.7,68,0.00,,---,0.00,VWS V14.01,2013-01-27 15:17:00,
2013-01-27 10:22:00,38.8,29.2,28.23,ENE,68,0.0,2.9,68,0.00,,---,0.00,VWS V14.01,2013-01-27 15:22:00,
2013-01-27 10:27:00,39.9,29.5,28.23,SSE,158,2.7,3.1,66,0.00,,---,0.00,VWS V14.01,2013-01-27 15:27:00,
2013-01-27 10:32:00,41.0,30.1,28.23,SSW,202,2.5,4.7,65,0.00,,---,0.00,VWS V14.01,2013-01-27 15:32:00,
2013-01-27 10:37:00,41.2,29.6,28.23,SE,135,1.6,2.7,63,0.00,,---,0.00,VWS V14.01,2013-01-27 15:37:00,
2013-01-27 10:43:00,41.0,29.0,28.23,East,90,2.0,5.8,62,0.00,,---,0.00,VWS V14.01,2013-01-27 15:43:00,
2013-01-27 10:48:00,41.7,29.7,28.23,WNW,292,1.1,3.8,62,0.00,,---,0.00,VWS V14.01,2013-01-27 15:48:00,
2013-01-27 10:53:00,41.4,29.3,28.23,SSE,158,2.2,3.4,62,0.00,,---,0.00,VWS V14.01,2013-01-27 15:53:00,
2013-01-27 10:58:00,40.8,28.8,28.23,SE,135,0.0,2.5,62,0.00,,---,0.00,VWS V14.01,2013-01-27 15:58:00,
2013-01-27 11:03:00,41.4,29.7,28.23,SSW,202,0.0,0.0,63,0.00,,---,0.00,VWS V14.01,2013-01-27 16:03:00,
2013-01-27 11:08:00,41.7,30.1,28.23,SSW,202,0.9,2.5,63,0.00,,---,0.00,VWS V14.01,2013-01-27 16:08:00,
2013-01-27 11:13:00,41.0,28.6,28.23,SE,135,2.0,3.4,61,0.00,,---,0.00,VWS V14.01,2013-01-27 16:13:00,
2013-01-27 11:18:00,40.8,28.8,28.23,East,90,3.8,3.8,62,0.00,,---,0.00,VWS V14.01,2013-01-27 16:18:00,
2013-01-27 11:23:00,42.1,29.2,28.23,ESE,112,4.9,4.9,60,0.00,,---,0.00,VWS V14.01,2013-01-27 16:23:00,
2013-01-27 11:28:00,43.5,30.2,28.23,SSW,202,2.2,2.9,59,0.00,,---,0.00,VWS V14.01,2013-01-27 16:28:00,
2013-01-27 11:33:00,44.4,30.2,28.23,SSW,202,2.7,3.8,57,0.00,,---,0.00,VWS V14.01,2013-01-27 16:33:00,
2013-01-27 11:38:00,44.8,30.1,28.23,SSE,158,0.0,2.9,56,0.00,,---,0.00,VWS V14.01,2013-01-27 16:38:00,
2013-01-27 11:44:00,44.1,28.9,28.23,SE,135,1.1,5.8,55,0.00,,---,0.00,VWS V14.01,2013-01-27 16:44:00,
2013-01-27 11:49:00,43.3,28.7,28.23,East,90,3.1,3.1,56,0.00,,---,0.00,VWS V14.01,2013-01-27 16:49:00,
2013-01-27 11:54:00,43.7,29.5,28.23,WSW,248,1.6,4.0,57,0.00,,---,0.00,VWS V14.01,2013-01-27 16:54:00,
2013-01-27 11:59:00,44.1,29.8,28.23,ESE,112,1.1,1.6,57,0.00,,---,0.00,VWS V14.01,2013-01-27 16:59:00,
2013-01-27 12:04:00,44.1,29.8,28.20,ENE,68,2.0,2.0,57,0.00,,---,0.00,VWS V14.01,2013-01-27 17:04:00,
2013-01-27 12:09:00,44.1,29.8,28.20,SSE,158,3.4,3.4,57,0.00,,---,0.00,VWS V14.01,2013-01-27 17:09:00,
2013-01-27 12:14:00,44.4,29.7,28.20,SSE,158,2.7,3.1,56,0.00,,---,0.00,VWS V14.01,2013-01-27 17:14:00,
2013-01-27 12:19:00,44.6,29.9,28.20,SSW,202,2.5,2.5,56,0.00,,---,0.00,VWS V14.01,2013-01-27 17:19:00,
2013-01-27 12:24:00,44.2,29.5,28.20,East,90,0.9,3.8,56,0.00,,---,0.00,VWS V14.01,2013-01-27 17:24:00,
2013-01-27 12:29:00,44.2,30.0,28.20,SSE,158,3.1,3.1,57,0.00,,---,0.00,VWS V14.01,2013-01-27 17:29:00,
2013-01-27 12:34:00,43.9,29.6,28.20,ESE,112,0.0,2.9,57,0.00,,---,0.00,VWS V14.01,2013-01-27 17:34:00,
2013-01-27 12:40:00,43.9,29.6,28.20,East,90,1.6,5.6,57,0.00,,---,0.00,VWS V14.01,2013-01-27 17:40:00,
2013-01-27 12:44:00,44.2,30.0,28.20,ESE,112,0.9,2.7,57,0.00,,---,0.00,VWS V14.01,2013-01-27 17:44:00,
2013-01-27 12:50:00,44.6,30.3,28.20,SSE,158,1.3,3.4,57,0.00,,---,0.00,VWS V14.01,2013-01-27 17:50:00,
2013-01-27 12:55:00,44.6,30.3,28.20,ESE,112,1.6,2.9,57,0.00,,---,0.00,VWS V14.01,2013-01-27 17:55:00,
2013-01-27 13:00:00,44.4,29.7,28.20,East,90,3.1,3.1,56,0.00,,---,0.00,VWS V14.01,2013-01-27 18:00:00,
2013-01-27 13:05:00,44.8,30.5,28.20,South,180,2.7,2.7,57,0.00,,---,0.00,VWS V14.01,2013-01-27 18:05:00,
2013-01-27 13:10:00,44.4,30.2,28.20,SE,135,4.0,4.0,57,0.00,,---,0.00,VWS V14.01,2013-01-27 18:10:00,
2013-01-27 13:15:00,44.4,30.2,28.20,ESE,112,2.2,2.2,57,0.00,,---,0.00,VWS V14.01,2013-01-27 18:15:00,
2013-01-27 13:20:00,44.1,30.2,28.20,ENE,68,2.2,2.2,58,0.00,,---,0.00,VWS V14.01,2013-01-27 18:20:00,
2013-01-27 13:25:00,44.4,30.6,28.20,South,180,0.9,2.5,58,0.00,,---,0.00,VWS V14.01,2013-01-27 18:25:00,
2013-01-27 13:30:00,44.4,30.6,28.20,SE,135,2.2,2.7,58,0.00,,---,0.00,VWS V14.01,2013-01-27 18:30:00,
2013-01-27 13:35:00,44.6,30.8,28.20,SSW,202,0.0,0.0,58,0.00,,---,0.00,VWS V14.01,2013-01-27 18:35:00,
2013-01-27 13:40:00,44.6,30.8,28.20,East,90,2.5,2.5,58,0.00,,---,0.00,VWS V14.01,2013-01-27 18:40:00,
2013-01-27 13:45:00,44.2,30.4,28.20,SE,135,1.1,2.2,58,0.00,,---,0.00,VWS V14.01,2013-01-27 18:45:00,
2013-01-27 13:50:00,44.6,30.8,28.20,South,180,1.6,3.4,58,0.00,,---,0.00,VWS V14.01,2013-01-27 18:50:00,
2013-01-27 13:55:00,44.8,30.9,28.20,SSE,158,1.1,1.6,58,0.00,,---,0.00,VWS V14.01,2013-01-27 18:55:00,
2013-01-27 14:00:00,44.8,30.9,28.20,SE,135,2.0,3.6,58,0.00,,---,0.00,VWS V14.01,2013-01-27 19:00:00,
2013-01-27 14:05:00,44.8,30.9,28.20,SSE,158,2.7,2.7,58,0.00,,---,0.00,VWS V14.01,2013-01-27 19:05:00,
2013-01-27 14:10:00,44.6,30.8,28.20,SSE,158,0.0,0.9,58,0.00,,---,0.00,VWS V14.01,2013-01-27 19:10:00,
2013-01-27 14:15:00,44.6,30.8,28.20,SE,135,0.0,0.0,58,0.00,,---,0.00,VWS V14.01,2013-01-27 19:15:00,
2013-01-27 14:20:00,44.6,30.8,28.17,South,180,3.4,3.4,58,0.00,,---,0.00,VWS V14.01,2013-01-27 19:20:00,
2013-01-27 14:25:00,44.8,31.3,28.17,ESE,112,2.0,3.4,59,0.00,,---,0.00,VWS V14.01,2013-01-27 19:25:00,
2013-01-27 14:30:00,44.8,31.3,28.17,ENE,68,0.0,0.0,59,0.00,,---,0.00,VWS V14.01,2013-01-27 19:30:00,
2013-01-27 14:35:00,45.0,31.5,28.20,SE,135,0.0,1.1,59,0.00,,---,0.00,VWS V14.01,2013-01-27 19:35:00,
2013-01-27 14:40:00,45.0,31.5,28.20,East,90,0.0,0.0,59,0.00,,---,0.00,VWS V14.01,2013-01-27 19:40:00,
2013-01-27 14:45:00,45.1,31.7,28.20,ESE,112,0.0,0.0,59,0.00,,---,0.00,VWS V14.01,2013-01-27 19:45:00,
2013-01-27 14:50:00,45.1,31.7,28.17,SSW,202,0.0,1.1,59,0.00,,---,0.00,VWS V14.01,2013-01-27 19:50:00,
2013-01-27 14:56:00,45.3,31.9,28.17,SSE,158,1.3,1.3,59,0.00,,---,0.00,VWS V14.01,2013-01-27 19:56:00,
2013-01-27 15:01:00,45.5,32.0,28.17,SSE,158,0.9,0.9,59,0.00,,---,0.00,VWS V14.01,2013-01-27 20:01:00,
2013-01-27 15:06:00,45.9,32.4,28.17,East,90,0.0,0.0,59,0.00,,---,0.00,VWS V14.01,2013-01-27 20:06:00,
2013-01-27 15:11:00,46.0,32.5,28.17,ESE,112,0.9,0.9,59,0.00,,---,0.00,VWS V14.01,2013-01-27 20:11:00,
2013-01-27 15:16:00,46.2,32.7,28.17,SSE,158,0.0,0.0,59,0.00,,---,0.00,VWS V14.01,2013-01-27 20:16:00,
2013-01-27 15:21:00,46.0,32.5,28.17,ESE,112,0.9,1.1,59,0.00,,---,0.00,VWS V14.01,2013-01-27 20:21:00,
2013-01-27 15:26:00,45.9,32.4,28.17,SE,135,1.6,3.4,59,0.00,,---,0.00,VWS V14.01,2013-01-27 20:26:00,
2013-01-27 15:31:00,45.9,32.4,28.17,ESE,112,0.0,0.0,59,0.00,,---,0.00,VWS V14.01,2013-01-27 20:31:00,
2013-01-27 15:36:00,45.7,32.2,28.20,SE,135,0.0,1.6,59,0.00,,---,0.00,VWS V14.01,2013-01-27 20:36:00,
2013-01-27 15:41:00,45.5,31.6,28.20,SSE,158,0.0,0.0,58,0.00,,---,0.00,VWS V14.01,2013-01-27 20:41:00,
2013-01-27 15:46:00,45.5,32.0,28.20,East,90,2.0,2.0,59,0.00,,---,0.00,VWS V14.01,2013-01-27 20:46:00,
2013-01-27 15:51:00,45.5,32.0,28.20,NNE,22,0.0,1.6,59,0.00,,---,0.00,VWS V14.01,2013-01-27 20:51:00,
2013-01-27 15:56:00,45.3,31.9,28.20,ESE,112,0.0,0.0,59,0.00,,---,0.00,VWS V14.01,2013-01-27 20:56:00,
2013-01-27 16:01:00,45.3,31.9,28.20,SSE,158,0.0,2.0,59,0.00,,---,0.00,VWS V14.01,2013-01-27 21:01:00,
2013-01-27 16:06:00,45.1,31.7,28.20,ESE,112,0.0,1.3,59,0.00,,---,0.00,VWS V14.01,2013-01-27 21:06:00,
2013-01-27 16:11:00,45.1,31.7,28.20,East,90,1.6,2.7,59,0.00,,---,0.00,VWS V14.01,2013-01-27 21:11:00,
2013-01-27 16:16:00,45.0,31.5,28.20,SSW,202,1.1,3.4,59,0.00,,---,0.00,VWS V14.01,2013-01-27 21:16:00,
2013-01-27 16:21:00,44.8,31.3,28.20,ESE,112,0.9,2.7,59,0.00,,---,0.00,VWS V14.01,2013-01-27 21:21:00,
2013-01-27 16:26:00,44.6,32.0,28.20,ESE,112,0.0,0.0,61,0.00,,---,0.00,VWS V14.01,2013-01-27 21:26:00,
2013-01-27 16:31:00,44.2,32.1,28.20,ESE,112,0.9,3.8,62,0.00,,---,0.00,VWS V14.01,2013-01-27 21:31:00,
2013-01-27 16:36:00,44.1,31.9,28.20,ENE,68,0.0,0.0,62,0.00,,---,0.00,VWS V14.01,2013-01-27 21:36:00,
2013-01-27 16:41:00,44.1,32.3,28.20,SSE,158,2.0,3.6,63,0.00,,---,0.00,VWS V14.01,2013-01-27 21:41:00,
2013-01-27 16:46:00,44.1,32.3,28.20,East,90,0.0,2.5,63,0.00,,---,0.00,VWS V14.01,2013-01-27 21:46:00,
2013-01-27 16:51:00,44.1,32.3,28.20,East,90,0.0,6.5,63,0.00,,---,0.00,VWS V14.01,2013-01-27 21:51:00,
2013-01-27 16:56:00,44.1,32.7,28.20,ESE,112,2.5,2.5,64,0.00,,---,0.00,VWS V14.01,2013-01-27 21:56:00,
2013-01-27 17:01:00,44.1,32.7,28.20,ENE,68,1.3,1.3,64,0.00,,---,0.00,VWS V14.01,2013-01-27 22:01:00,
2013-01-27 17:06:00,43.9,32.5,28.20,SE,135,0.0,2.0,64,0.00,,---,0.00,VWS V14.01,2013-01-27 22:06:00,
2013-01-27 17:11:00,44.1,32.7,28.20,East,90,0.0,2.7,64,0.00,,---,0.00,VWS V14.01,2013-01-27 22:11:00,
2013-01-27 17:16:00,44.1,32.7,28.20,SE,135,0.0,0.0,64,0.00,,---,0.00,VWS V14.01,2013-01-27 22:16:00,
2013-01-27 17:21:00,44.1,32.7,28.20,SSW,202,2.7,2.7,64,0.00,,---,0.00,VWS V14.01,2013-01-27 22:21:00,
2013-01-27 17:26:00,44.1,32.7,28.20,SE,135,0.0,2.2,64,0.00,,---,0.00,VWS V14.01,2013-01-27 22:26:00,
2013-01-27 17:31:00,44.1,32.7,28.20,East,90,0.9,0.9,64,0.00,,---,0.00,VWS V14.01,2013-01-27 22:31:00,
2013-01-27 17:36:00,44.1,32.7,28.20,East,90,0.0,0.0,64,0.00,,---,0.00,VWS V14.01,2013-01-27 22:36:00,
2013-01-27 17:41:00,44.1,32.7,28.20,South,180,0.0,1.6,64,0.00,,---,0.00,VWS V14.01,2013-01-27 22:41:00,
2013-01-27 17:46:00,43.9,32.5,28.20,East,90,3.8,3.8,64,0.00,,---,0.00,VWS V14.01,2013-01-27 22:46:00,
2013-01-27 17:51:00,43.9,32.5,28.20,ESE,112,2.0,3.4,64,0.00,,---,0.00,VWS V14.01,2013-01-27 22:51:00,
2013-01-27 17:56:00,43.9,32.5,28.20,ESE,112,2.7,3.1,64,0.00,,---,0.00,VWS V14.01,2013-01-27 22:56:00,
2013-01-27 18:01:00,43.7,32.3,28.20,SW,225,1.1,1.3,64,0.00,,---,0.00,VWS V14.01,2013-01-27 23:01:00,
2013-01-27 18:07:00,43.7,32.3,28.20,East,90,2.7,3.6,64,0.00,,---,0.00,VWS V14.01,2013-01-27 23:07:00,
2013-01-27 18:12:00,43.7,32.3,28.20,East,90,2.5,3.1,64,0.00,,---,0.00,VWS V14.01,2013-01-27 23:12:00,
2013-01-27 18:17:00,43.7,32.3,28.20,ESE,112,0.0,1.1,64,0.00,,---,0.00,VWS V14.01,2013-01-27 23:17:00,
2013-01-27 18:22:00,43.5,32.2,28.20,ESE,112,1.1,1.3,64,0.00,,---,0.00,VWS V14.01,2013-01-27 23:22:00,
2013-01-27 18:27:00,43.5,32.2,28.20,ESE,112,0.0,2.7,64,0.00,,---,0.00,VWS V14.01,2013-01-27 23:27:00,
2013-01-27 18:32:00,43.5,32.2,28.20,SSE,158,1.6,3.8,64,0.00,,---,0.00,VWS V14.01,2013-01-27 23:32:00,
2013-01-27 18:37:00,43.5,32.2,28.20,ESE,112,2.7,3.4,64,0.00,,---,0.00,VWS V14.01,2013-01-27 23:37:00,
2013-01-27 18:42:00,43.3,32.0,28.20,ESE,112,1.6,1.6,64,0.00,,---,0.00,VWS V14.01,2013-01-27 23:42:00,
2013-01-27 18:47:00,43.3,32.0,28.20,SSW,202,0.0,0.0,64,0.00,,---,0.00,VWS V14.01,2013-01-27 23:47:00,
2013-01-27 18:52:00,43.3,32.0,28.20,ESE,112,0.0,0.0,64,0.00,,---,0.00,VWS V14.01,2013-01-27 23:52:00,
2013-01-27 18:57:00,43.3,32.0,28.20,East,90,0.0,2.9,64,0.00,,---,0.00,VWS V14.01,2013-01-27 23:57:00,
2013-01-27 19:02:00,43.2,31.8,28.20,SE,135,0.0,0.0,64,0.00,,---,0.00,VWS V14.01,2013-01-28 00:02:00,
2013-01-27 19:07:00,43.2,31.8,28.20,ESE,112,0.0,0.0,64,0.00,,---,0.00,VWS V14.01,2013-01-28 00:07:00,
2013-01-27 19:12:00,43.2,31.8,28.20,ESE,112,2.2,2.2,64,0.00,,---,0.00,VWS V14.01,2013-01-28 00:12:00,
2013-01-27 19:17:00,43.0,32.0,28.20,SE,135,0.0,0.0,65,0.00,,---,0.00,VWS V14.01,2013-01-28 00:17:00,
2013-01-27 19:22:00,43.0,32.0,28.20,ESE,112,2.9,2.9,65,0.00,,---,0.00,VWS V14.01,2013-01-28 00:22:00,
2013-01-27 19:27:00,43.0,31.6,28.20,East,90,1.1,3.4,64,0.00,,---,0.00,VWS V14.01,2013-01-28 00:27:00,
2013-01-27 19:32:00,43.0,31.6,28.20,SE,135,0.0,0.9,64,0.00,,---,0.00,VWS V14.01,2013-01-28 00:32:00,
2013-01-27 19:37:00,43.0,31.6,28.20,SE,135,0.0,0.9,64,0.00,,---,0.00,VWS V14.01,2013-01-28 00:37:00,
2013-01-27 19:42:00,43.0,31.6,28.20,East,90,1.3,2.5,64,0.00,,---,0.00,VWS V14.01,2013-01-28 00:42:00,
2013-01-27 19:47:00,43.0,31.3,28.20,ENE,68,0.0,1.3,63,0.00,,---,0.00,VWS V14.01,2013-01-28 00:47:00,
2013-01-27 19:52:00,43.0,31.3,28.20,ENE,68,2.7,2.7,63,0.00,,---,0.00,VWS V14.01,2013-01-28 00:52:00,
2013-01-27 19:57:00,43.0,31.3,28.20,East,90,0.0,2.0,63,0.00,,---,0.00,VWS V14.01,2013-01-28 00:57:00,
2013-01-27 20:03:00,43.0,30.9,28.20,ESE,112,3.1,3.1,62,0.00,,---,0.00,VWS V14.01,2013-01-28 01:03:00,
2013-01-27 20:08:00,42.8,30.7,28.20,ESE,112,2.2,2.2,62,0.00,,---,0.00,VWS V14.01,2013-01-28 01:08:00,
2013-01-27 20:13:00,42.8,30.7,28.20,ESE,112,2.5,2.9,62,0.00,,---,0.00,VWS V14.01,2013-01-28 01:13:00,
2013-01-27 20:18:00,42.8,30.3,28.20,East,90,2.5,2.5,61,0.00,,---,0.00,VWS V14.01,2013-01-28 01:18:00,
2013-01-27 20:23:00,42.8,30.3,28.20,SE,135,2.0,2.0,61,0.00,,---,0.00,VWS V14.01,2013-01-28 01:23:00,
2013-01-27 20:28:00,42.8,30.3,28.20,SSE,158,0.9,0.9,61,0.00,,---,0.00,VWS V14.01,2013-01-28 01:28:00,
2013-01-27 20:33:00,42.8,29.9,28.20,East,90,0.0,1.1,60,0.00,,---,0.00,VWS V14.01,2013-01-28 01:33:00,
2013-01-27 20:38:00,42.8,29.9,28.20,SSE,158,2.2,2.7,60,0.00,,---,0.00,VWS V14.01,2013-01-28 01:38:00,
2013-01-27 20:43:00,42.8,29.9,28.20,SW,225,2.2,2.5,60,0.00,,---,0.00,VWS V14.01,2013-01-28 01:43:00,
2013-01-27 20:48:00,42.8,29.9,28.20,SE,135,1.6,2.0,60,0.00,,---,0.00,VWS V14.01,2013-01-28 01:48:00,
2013-01-27 20:53:00,42.8,29.9,28.20,North,0,2.0,2.9,60,0.00,,---,0.00,VWS V14.01,2013-01-28 01:53:00,
2013-01-27 20:58:00,42.6,29.7,28.20,ESE,112,2.9,4.3,60,0.00,,---,0.00,VWS V14.01,2013-01-28 01:58:00,
2013-01-27 21:03:00,42.6,29.7,28.20,East,90,2.0,4.0,60,0.00,,---,0.00,VWS V14.01,2013-01-28 02:03:00,
2013-01-27 21:08:00,42.6,29.7,28.20,South,180,2.9,2.9,60,0.00,,---,0.00,VWS V14.01,2013-01-28 02:08:00,
2013-01-27 21:13:00,42.4,29.5,28.20,East,90,3.4,3.4,60,0.00,,---,0.00,VWS V14.01,2013-01-28 02:13:00,
2013-01-27 21:18:00,42.4,29.1,28.20,East,90,3.8,4.9,59,0.00,,---,0.00,VWS V14.01,2013-01-28 02:18:00,
2013-01-27 21:23:00,42.4,29.5,28.20,East,90,2.9,3.6,60,0.00,,---,0.00,VWS V14.01,2013-01-28 02:23:00,
2013-01-27 21:28:00,42.4,29.1,28.20,ESE,112,3.4,5.8,59,0.00,,---,0.00,VWS V14.01,2013-01-28 02:28:00,
2013-01-27 21:33:00,42.3,29.0,28.20,SE,135,0.9,3.1,59,0.00,,---,0.00,VWS V14.01,2013-01-28 02:33:00,
2013-01-27 21:39:00,42.3,29.4,28.20,East,90,2.0,2.0,60,0.00,,---,0.00,VWS V14.01,2013-01-28 02:39:00,
2013-01-27 21:44:00,42.4,29.5,28.20,SE,135,1.6,3.1,60,0.00,,---,0.00,VWS V14.01,2013-01-28 02:44:00,
2013-01-27 21:49:00,42.3,29.4,28.20,SSW,202,3.1,3.1,60,0.00,,---,0.00,VWS V14.01,2013-01-28 02:49:00,
2013-01-27 21:54:00,42.3,29.4,28.20,SSE,158,3.1,3.1,60,0.00,,---,0.00,VWS V14.01,2013-01-28 02:54:00,
2013-01-27 21:59:00,42.3,29.4,28.20,South,180,2.9,2.9,60,0.00,,---,0.00,VWS V14.01,2013-01-28 02:59:00,
2013-01-27 22:04:00,42.3,29.4,28.17,East,90,2.2,2.2,60,0.00,,---,0.00,VWS V14.01,2013-01-28 03:04:00,
2013-01-27 22:09:00,42.3,29.4,28.17,East,90,3.1,4.7,60,0.00,,---,0.00,VWS V14.01,2013-01-28 03:09:00,
2013-01-27 22:14:00,42.3,29.4,28.17,SSW,202,2.2,2.2,60,0.00,,---,0.00,VWS V14.01,2013-01-28 03:14:00,
2013-01-27 22:19:00,42.3,29.4,28.20,East,90,3.8,3.8,60,0.00,,---,0.00,VWS V14.01,2013-01-28 03:19:00,
2013-01-27 22:24:00,42.3,29.4,28.20,SSE,158,2.7,3.6,60,0.00,,---,0.00,VWS V14.01,2013-01-28 03:24:00,
2013-01-27 22:29:00,42.3,29.4,28.20,East,90,1.3,1.3,60,0.00,,---,0.00,VWS V14.01,2013-01-28 03:29:00,
2013-01-27 22:34:00,42.1,29.2,28.17,SSE,158,0.0,0.0,60,0.00,,---,0.00,VWS V14.01,2013-01-28 03:34:00,
2013-01-27 22:39:00,42.1,29.2,28.17,SE,135,2.5,3.1,60,0.00,,---,0.00,VWS V14.01,2013-01-28 03:39:00,
2013-01-27 22:44:00,41.9,29.0,28.17,SE,135,0.0,1.6,60,0.00,,---,0.00,VWS V14.01,2013-01-28 03:44:00,
2013-01-27 22:49:00,41.7,28.9,28.20,ESE,112,0.9,1.6,60,0.00,,---,0.00,VWS V14.01,2013-01-28 03:49:00,
2013-01-27 22:55:00,41.7,29.3,28.20,SE,135,0.0,2.2,61,0.00,,---,0.00,VWS V14.01,2013-01-28 03:55:00,
2013-01-27 23:00:00,41.5,29.1,28.20,SSW,202,1.6,2.9,61,0.00,,---,0.00,VWS V14.01,2013-01-28 04:00:00,
2013-01-27 23:05:00,41.5,29.1,28.17,ENE,68,1.1,2.7,61,0.00,,---,0.00,VWS V14.01,2013-01-28 04:05:00,
2013-01-27 23:10:00,41.5,29.1,28.17,ENE,68,4.7,4.7,61,0.00,,---,0.00,VWS V14.01,2013-01-28 04:10:00,
2013-01-27 23:15:00,41.5,29.1,28.17,NNW,338,0.0,2.9,61,0.00,,---,0.00,VWS V14.01,2013-01-28 04:15:00,
2013-01-27 23:20:00,41.5,29.1,28.17,SSE,158,0.9,3.1,61,0.00,,---,0.00,VWS V14.01,2013-01-28 04:20:00,
2013-01-27 23:25:00,41.5,29.1,28.17,SSW,202,1.1,1.1,61,0.00,,---,0.00,VWS V14.01,2013-01-28 04:25:00,
2013-01-27 23:30:00,41.5,29.1,28.17,SE,135,1.3,4.0,61,0.00,,---,0.00,VWS V14.01,2013-01-28 04:30:00,
2013-01-27 23:35:00,41.5,29.1,28.20,ESE,112,4.0,4.0,61,0.00,,---,0.00,VWS V14.01,2013-01-28 04:35:00,
2013-01-27 23:40:00,41.4,28.9,28.20,ESE,112,1.3,1.6,61,0.00,,---,0.00,VWS V14.01,2013-01-28 04:40:00,
2013-01-27 23:45:00,41.4,28.9,28.20,SE,135,0.0,1.3,61,0.00,,---,0.00,VWS V14.01,2013-01-28 04:45:00,
2013-01-27 23:50:00,41.2,28.8,28.20,SE,135,3.6,3.6,61,0.00,,---,0.00,VWS V14.01,2013-01-28 04:50:00,
2013-01-27 23:55:00,41.2,28.8,28.20,ESE,112,1.3,1.6,61,0.00,,---,0.00,VWS V14.01,2013-01-28 04:55:00,